Time;durP1;ratioP1;P1;durP2;ratioP2;P2;SDS_P1;SDS_P2;PMS_P1;PMS_P2;Temp;Humidity;BMP_temperature;BMP_pressure;BME280_temperature;BME280_humidity;BME280_pressure;Samples;Min_cycle;Max_cycle;Signal;HPM_P1;HPM_P2
2023/07/11 00:01:58;;;;;;;3.58;3.35;;;22.80;99.90;;;;;;4190268;28;20240;-57
2023/07/11 00:04:17;;;;;;;3.72;3.58;;;22.90;99.90;;;;;;4186879;28;20243;-57
2023/07/11 00:06:38;;;;;;;4.35;4.10;;;22.90;99.90;;;;;;4195804;28;20063;-58
2023/07/11 00:08:58;;;;;;;5.15;3.95;;;22.90;99.90;;;;;;4196479;28;20083;-57
2023/07/11 00:11:18;;;;;;;3.72;3.53;;;23.00;99.90;;;;;;4195758;28;20059;-57
2023/07/11 00:13:39;;;;;;;3.83;3.55;;;22.90;99.90;;;;;;4190259;28;20099;-57
2023/07/11 00:16:02;;;;;;;4.72;4.50;;;22.90;99.90;;;;;;4187885;28;20275;-56
2023/07/11 00:18:23;;;;;;;3.92;3.75;;;23.00;99.90;;;;;;4188206;28;20227;-57
2023/07/11 00:20:43;;;;;;;3.58;3.40;;;22.90;99.90;;;;;;4190775;28;20052;-57
2023/07/11 00:23:02;;;;;;;5.22;4.60;;;22.80;99.90;;;;;;4199042;28;20232;-57
2023/07/11 00:25:23;;;;;;;4.22;3.88;;;22.80;99.90;;;;;;4196772;28;20450;-57
2023/07/11 00:27:43;;;;;;;5.22;3.80;;;22.80;99.90;;;;;;4186121;28;20098;-56
2023/07/11 00:30:05;;;;;;;4.85;3.85;;;22.80;99.90;;;;;;4190117;28;20048;-57
2023/07/11 00:32:25;;;;;;;5.20;3.58;;;22.80;99.90;;;;;;4187764;28;20048;-56
2023/07/11 00:34:45;;;;;;;6.70;4.22;;;22.80;99.90;;;;;;4186570;28;20056;-57
2023/07/11 00:37:06;;;;;;;3.83;3.72;;;22.60;99.90;;;;;;4193941;28;20043;-56
2023/07/11 00:39:28;;;;;;;7.95;4.50;;;22.60;99.90;;;;;;4194374;28;20117;-57
2023/07/11 00:41:48;;;;;;;4.97;4.47;;;22.50;99.90;;;;;;4190220;28;20051;-57
2023/07/11 00:44:16;;;;;;;4.68;4.47;;;22.50;99.90;;;;;;4190829;28;20240;-57
2023/07/11 00:46:36;;;;;;;4.82;4.50;;;22.30;99.90;;;;;;4188894;28;20060;-56
2023/07/11 00:48:59;;;;;;;4.07;3.97;;;22.20;99.90;;;;;;4191286;28;20052;-57
2023/07/11 00:51:26;;;;;;;4.32;3.92;;;22.30;99.90;;;;;;4191384;28;20091;-57
2023/07/11 00:53:47;;;;;;;4.78;4.53;;;22.20;99.90;;;;;;4188776;28;20300;-57
2023/07/11 00:56:10;;;;;;;4.55;4.20;;;22.10;99.90;;;;;;4192276;28;20172;-57
2023/07/11 00:58:32;;;;;;;5.00;4.68;;;22.20;99.90;;;;;;4192116;28;20236;-56
2023/07/11 01:00:52;;;;;;;4.30;4.00;;;22.20;99.90;;;;;;4193824;28;20047;-57
2023/07/11 01:03:13;;;;;;;5.20;4.88;;;22.00;99.90;;;;;;4194803;28;20044;-57
2023/07/11 01:05:33;;;;;;;5.75;4.60;;;22.00;99.90;;;;;;4189758;28;20448;-57
2023/07/11 01:07:53;;;;;;;4.63;4.30;;;22.00;99.90;;;;;;4191190;28;20040;-57
2023/07/11 01:10:13;;;;;;;3.60;3.50;;;22.10;99.90;;;;;;4195688;28;20055;-57
2023/07/11 01:12:33;;;;;;;4.50;4.18;;;22.10;99.90;;;;;;4196215;28;20056;-57
2023/07/11 01:14:54;;;;;;;5.13;4.90;;;22.10;99.90;;;;;;4194159;28;20075;-57
2023/07/11 01:17:26;;;;;;;5.22;4.93;;;22.10;99.90;;;;;;4194547;28;20094;-56
2023/07/11 01:19:46;;;;;;;5.18;4.97;;;22.00;99.90;;;;;;4191443;28;20371;-57
2023/07/11 01:22:07;;;;;;;5.47;5.28;;;22.00;99.90;;;;;;4191011;28;20100;-57
2023/07/11 01:24:27;;;;;;;5.10;4.80;;;22.00;99.90;;;;;;4196345;28;20052;-57
2023/07/11 01:26:47;;;;;;;5.32;4.97;;;22.00;99.90;;;;;;4199521;28;20135;-57
2023/07/11 01:29:08;;;;;;;5.60;4.85;;;22.00;99.90;;;;;;4199516;28;20093;-57
2023/07/11 01:31:28;;;;;;;5.38;4.93;;;21.90;99.90;;;;;;4190235;28;20293;-57
2023/07/11 01:33:48;;;;;;;5.50;5.40;;;21.90;99.90;;;;;;4189539;28;20104;-57
2023/07/11 01:36:09;;;;;;;5.28;4.93;;;22.00;99.90;;;;;;4190203;28;20112;-56
2023/07/11 01:38:29;;;;;;;5.63;5.32;;;21.90;99.90;;;;;;4190550;28;20052;-56
2023/07/11 01:40:49;;;;;;;5.10;4.65;;;21.80;99.90;;;;;;4201292;28;20386;-56
2023/07/11 01:43:10;;;;;;;4.25;4.05;;;21.80;99.90;;;;;;4198504;28;20240;-57
2023/07/11 01:45:30;;;;;;;4.85;4.55;;;21.70;99.90;;;;;;4188242;28;20167;-57
2023/07/11 01:47:49;;;;;;;5.13;4.85;;;21.70;99.90;;;;;;4192084;28;20398;-56
2023/07/11 01:50:10;;;;;;;6.05;5.43;;;21.80;99.90;;;;;;4189466;28;20040;-56
2023/07/11 01:52:30;;;;;;;5.93;5.80;;;21.80;99.90;;;;;;4188240;28;20056;-56
2023/07/11 01:54:50;;;;;;;4.93;4.70;;;21.50;99.90;;;;;;4188035;28;20047;-57
2023/07/11 01:57:10;;;;;;;5.47;4.53;;;21.50;99.90;;;;;;4193671;28;20235;-57
2023/07/11 01:59:30;;;;;;;5.53;5.10;;;21.50;99.90;;;;;;4189049;28;20342;-57
2023/07/11 02:01:50;;;;;;;5.13;4.75;;;21.60;99.90;;;;;;4190283;28;20055;-57
2023/07/11 02:04:10;;;;;;;4.15;3.95;;;21.50;99.90;;;;;;4189554;28;20086;-57
2023/07/11 02:06:30;;;;;;;5.45;5.18;;;21.30;99.90;;;;;;4191035;28;20099;-57
2023/07/11 02:08:50;;;;;;;5.25;5.05;;;21.20;99.90;;;;;;4190407;28;20078;-56
2023/07/11 02:11:09;;;;;;;5.25;5.15;;;21.10;99.90;;;;;;4188899;28;20236;-57
2023/07/11 02:13:29;;;;;;;4.78;4.50;;;21.00;99.90;;;;;;4192632;28;20047;-57
2023/07/11 02:15:49;;;;;;;4.85;4.40;;;21.10;99.90;;;;;;4192784;28;20094;-57
2023/07/11 02:18:09;;;;;;;4.85;4.70;;;21.10;99.90;;;;;;4193795;28;20291;-57
2023/07/11 02:20:30;;;;;;;4.40;4.30;;;21.00;99.90;;;;;;4194413;28;20052;-57
2023/07/11 02:22:50;;;;;;;5.60;5.20;;;21.00;99.90;;;;;;4190066;28;20063;-57
2023/07/11 02:25:10;;;;;;;5.00;4.80;;;21.10;99.90;;;;;;4189725;28;20221;-57
2023/07/11 02:27:30;;;;;;;4.72;4.43;;;21.00;99.90;;;;;;4192843;28;20566;-57
2023/07/11 02:29:52;;;;;;;5.45;5.10;;;21.10;99.90;;;;;;4196308;28;20082;-57
2023/07/11 02:32:12;;;;;;;4.60;4.47;;;21.10;99.90;;;;;;4195876;28;20083;-57
2023/07/11 02:34:32;;;;;;;5.13;4.88;;;21.10;99.90;;;;;;4196803;28;20112;-57
2023/07/11 02:36:52;;;;;;;5.30;5.10;;;21.20;99.90;;;;;;4191176;28;20048;-57
2023/07/11 02:39:13;;;;;;;5.03;4.82;;;21.00;99.90;;;;;;4188791;28;20402;-56
2023/07/11 02:41:33;;;;;;;6.25;5.93;;;20.80;99.90;;;;;;4187588;28;20044;-57
2023/07/11 02:43:53;;;;;;;7.00;5.90;;;20.70;99.90;;;;;;4198958;28;20108;-57
2023/07/11 02:46:15;;;;;;;6.07;5.63;;;20.70;99.90;;;;;;4199093;28;20063;-57
2023/07/11 02:48:34;;;;;;;5.32;4.75;;;20.70;99.90;;;;;;4191086;28;20055;-57
2023/07/11 02:50:54;;;;;;;5.32;5.13;;;20.60;99.90;;;;;;4187832;28;20059;-57
2023/07/11 02:53:15;;;;;;;5.68;5.22;;;20.60;99.90;;;;;;4190727;28;20063;-57
2023/07/11 02:55:39;;;;;;;5.63;5.40;;;20.60;99.90;;;;;;4188845;28;20056;-57
2023/07/11 02:57:59;;;;;;;5.93;5.75;;;20.50;99.90;;;;;;4190824;28;20044;-57
2023/07/11 03:00:18;;;;;;;6.38;5.88;;;20.60;99.90;;;;;;4200857;28;20109;-56
2023/07/11 03:02:39;;;;;;;5.75;5.60;;;20.70;99.90;;;;;;4186028;28;20051;-57
2023/07/11 03:04:59;;;;;;;7.45;6.93;;;20.80;99.90;;;;;;4188674;28;20056;-57
2023/07/11 03:07:19;;;;;;;6.32;6.00;;;20.80;99.90;;;;;;4187601;28;20107;-57
2023/07/11 03:09:39;;;;;;;5.43;5.05;;;20.70;99.90;;;;;;4188901;28;20094;-57
2023/07/11 03:11:59;;;;;;;5.78;5.55;;;20.80;99.90;;;;;;4189041;28;20044;-57
2023/07/11 03:14:20;;;;;;;5.20;4.93;;;20.70;99.90;;;;;;4189407;28;20082;-57
2023/07/11 03:16:42;;;;;;;6.00;5.75;;;20.70;99.90;;;;;;4189904;28;20052;-57
2023/07/11 03:19:02;;;;;;;7.15;6.18;;;20.70;99.90;;;;;;4188848;28;20055;-57
2023/07/11 03:21:21;;;;;;;5.70;5.38;;;20.70;99.90;;;;;;4190847;28;20064;-57
2023/07/11 03:23:42;;;;;;;6.22;5.75;;;20.70;99.90;;;;;;4190775;28;20052;-57
2023/07/11 03:26:02;;;;;;;5.20;4.78;;;20.60;99.90;;;;;;4190313;28;20114;-57
2023/07/11 03:28:23;;;;;;;6.47;5.88;;;20.50;99.90;;;;;;4186759;28;20375;-57
2023/07/11 03:30:43;;;;;;;6.03;5.43;;;20.50;99.90;;;;;;4192093;28;20051;-57
2023/07/11 03:33:04;;;;;;;4.47;4.32;;;20.30;99.90;;;;;;4193179;28;20085;-57
2023/07/11 03:35:24;;;;;;;5.10;4.80;;;20.20;99.90;;;;;;4193912;28;20051;-57
2023/07/11 03:37:43;;;;;;;5.93;5.57;;;20.10;99.90;;;;;;4195039;28;20258;-60
2023/07/11 03:40:03;;;;;;;5.07;4.70;;;20.10;99.90;;;;;;4191482;28;20109;-60
2023/07/11 03:42:23;;;;;;;4.35;4.03;;;20.20;99.90;;;;;;4189662;28;20047;-59
2023/07/11 03:44:43;;;;;;;5.18;4.80;;;20.20;99.90;;;;;;4187419;28;20248;-60
2023/07/11 03:47:04;;;;;;;5.93;5.72;;;20.20;99.90;;;;;;4196582;28;20373;-59
2023/07/11 03:49:23;;;;;;;5.80;5.50;;;20.20;99.90;;;;;;4197070;28;20366;-60
2023/07/11 03:51:43;;;;;;;5.13;4.88;;;20.10;99.90;;;;;;4196733;28;20055;-60
2023/07/11 03:54:05;;;;;;;4.70;4.50;;;20.10;99.90;;;;;;4188957;28;20051;-60
2023/07/11 03:56:24;;;;;;;5.95;5.55;;;20.00;99.90;;;;;;4188261;28;20059;-59
2023/07/11 03:58:44;;;;;;;5.32;4.93;;;20.00;99.90;;;;;;4188495;28;20083;-60
2023/07/11 04:01:05;;;;;;;5.68;5.45;;;20.00;99.90;;;;;;4190852;28;20044;-60
2023/07/11 04:03:25;;;;;;;5.88;5.45;;;20.00;99.90;;;;;;4199089;28;20052;-59
2023/07/11 04:05:46;;;;;;;5.45;5.15;;;19.90;99.90;;;;;;4195883;28;20052;-59
2023/07/11 04:08:05;;;;;;;5.38;5.07;;;20.00;99.90;;;;;;4186156;28;20263;-57
2023/07/11 04:10:26;;;;;;;6.93;6.40;;;20.10;99.90;;;;;;4190162;28;20047;-57
2023/07/11 04:12:46;;;;;;;5.38;5.15;;;20.00;99.90;;;;;;4188832;28;20078;-57
2023/07/11 04:15:07;;;;;;;6.90;6.35;;;19.90;99.90;;;;;;4189236;28;20047;-57
2023/07/11 04:17:27;;;;;;;5.15;4.95;;;19.80;99.90;;;;;;4196156;28;20047;-57
2023/07/11 04:19:47;;;;;;;5.63;5.28;;;19.70;99.90;;;;;;4191307;28;20240;-57
2023/07/11 04:22:07;;;;;;;6.32;5.90;;;19.80;99.90;;;;;;4190487;28;20056;-57
2023/07/11 04:24:26;;;;;;;6.38;6.18;;;19.80;99.90;;;;;;4191124;28;20397;-57
2023/07/11 04:26:46;;;;;;;6.80;6.45;;;19.70;99.90;;;;;;4189861;28;20075;-57
2023/07/11 04:29:06;;;;;;;6.05;5.68;;;19.60;99.90;;;;;;4191087;28;20052;-57
2023/07/11 04:31:27;;;;;;;7.07;6.45;;;19.50;99.90;;;;;;4190111;28;20048;-57
2023/07/11 04:33:47;;;;;;;6.25;5.95;;;19.50;99.90;;;;;;4190181;28;20056;-57
2023/07/11 04:36:12;;;;;;;6.38;6.15;;;19.50;99.90;;;;;;4192838;28;20083;-57
2023/07/11 04:38:32;;;;;;;6.15;5.85;;;19.50;99.90;;;;;;4193845;28;20044;-58
2023/07/11 04:40:51;;;;;;;6.18;5.75;;;19.40;99.90;;;;;;4193094;28;20086;-57
2023/07/11 04:43:12;;;;;;;5.72;5.45;;;19.40;99.90;;;;;;4192614;28;20100;-57
2023/07/11 04:45:33;;;;;;;5.32;5.22;;;19.40;99.90;;;;;;4191537;28;20082;-57
2023/07/11 04:47:53;;;;;;;5.93;5.70;;;19.50;99.90;;;;;;4191412;28;20052;-57
2023/07/11 04:50:14;;;;;;;5.45;5.07;;;19.50;99.90;;;;;;4195512;28;20277;-57
2023/07/11 04:52:33;;;;;;;4.72;4.50;;;19.60;99.90;;;;;;4195619;28;20121;-57
2023/07/11 04:54:53;;;;;;;6.30;5.90;;;19.60;99.90;;;;;;4196829;28;20075;-57
2023/07/11 04:57:13;;;;;;;7.43;6.82;;;19.70;99.90;;;;;;4197457;28;20048;-57
2023/07/11 04:59:33;;;;;;;5.53;5.03;;;19.70;99.90;;;;;;4192258;28;20064;-57
2023/07/11 05:01:53;;;;;;;6.15;5.57;;;19.70;99.90;;;;;;4190221;28;20147;-57
2023/07/11 05:04:13;;;;;;;10.98;4.60;;;19.70;99.90;;;;;;4192381;28;20252;-57
2023/07/11 05:06:33;;;;;;;4.78;4.50;;;19.70;99.90;;;;;;4199897;28;20248;-57
2023/07/11 05:08:53;;;;;;;7.50;5.07;;;19.70;99.90;;;;;;4199816;28;20087;-57
2023/07/11 05:11:16;;;;;;;4.03;3.83;;;19.70;99.90;;;;;;4191990;28;20060;-57
2023/07/11 05:13:37;;;;;;;4.65;4.35;;;19.70;99.90;;;;;;4189521;28;20367;-57
2023/07/11 05:16:05;;;;;;;4.40;4.20;;;19.80;99.90;;;;;;4174305;28;20053;-57
2023/07/11 05:18:26;;;;;;;4.57;4.13;;;19.90;99.90;;;;;;4189863;28;20079;-57
2023/07/11 05:20:53;;;;;;;6.45;4.05;;;20.00;99.90;;;;;;4199155;28;20042;-57
2023/07/11 05:23:13;;;;;;;4.35;4.05;;;19.90;99.90;;;;;;4199316;28;20144;-57
2023/07/11 05:25:36;;;;;;;11.30;3.83;;;19.90;99.90;;;;;;4189494;28;20392;-57
2023/07/11 05:27:56;;;;;;;5.13;4.53;;;20.00;99.90;;;;;;4189436;28;20048;-57
2023/07/11 05:30:16;;;;;;;4.28;3.88;;;20.00;99.90;;;;;;4190306;28;20048;-57
2023/07/11 05:32:36;;;;;;;6.75;4.97;;;20.10;99.90;;;;;;4190175;28;20059;-57
2023/07/11 05:34:56;;;;;;;4.38;4.20;;;20.20;99.90;;;;;;4188848;28;20112;-57
2023/07/11 05:37:16;;;;;;;5.28;4.93;;;20.20;99.90;;;;;;4187642;28;20295;-57
2023/07/11 05:39:35;;;;;;;8.63;4.72;;;20.30;99.90;;;;;;4190686;28;20056;-57
2023/07/11 05:41:57;;;;;;;5.07;4.88;;;20.30;99.90;;;;;;4190204;28;20083;-57
2023/07/11 05:44:17;;;;;;;5.25;4.78;;;20.40;99.90;;;;;;4189990;28;20063;-57
2023/07/11 05:46:38;;;;;;;6.32;4.55;;;20.50;99.90;;;;;;4192060;28;20064;-57
2023/07/11 05:48:59;;;;;;;5.38;5.05;;;20.50;99.90;;;;;;4191845;28;20114;-57
2023/07/11 05:51:20;;;;;;;5.65;5.22;;;20.50;99.90;;;;;;4190690;28;20240;-57
2023/07/11 05:53:40;;;;;;;5.53;4.13;;;20.60;99.90;;;;;;4192553;28;20047;-57
2023/07/11 05:56:00;;;;;;;6.10;5.80;;;20.80;99.90;;;;;;4192541;28;20112;-57
2023/07/11 05:58:20;;;;;;;4.38;4.18;;;20.80;99.90;;;;;;4194261;28;20386;-57
2023/07/11 06:00:39;;;;;;;4.13;4.03;;;21.10;99.90;;;;;;4194532;28;20239;-57
2023/07/11 06:03:01;;;;;;;4.85;3.65;;;21.30;99.90;;;;;;4189924;28;20060;-57
2023/07/11 06:05:22;;;;;;;4.53;4.18;;;21.30;99.90;;;;;;4188182;28;20470;-57
2023/07/11 06:07:43;;;;;;;4.75;4.35;;;21.30;99.90;;;;;;4193495;28;20272;-57
2023/07/11 06:10:03;;;;;;;3.83;3.45;;;21.30;99.90;;;;;;4197126;28;20052;-57
2023/07/11 06:12:23;;;;;;;4.85;3.72;;;21.40;99.90;;;;;;4197263;28;20086;-57
2023/07/11 06:14:42;;;;;;;9.55;4.28;;;21.50;99.90;;;;;;4195724;28;20095;-57
2023/07/11 06:17:03;;;;;;;4.45;3.63;;;21.60;99.90;;;;;;4188701;28;20043;-57
2023/07/11 06:19:23;;;;;;;4.40;4.05;;;21.60;99.90;;;;;;4190704;28;20051;-57
2023/07/11 06:21:44;;;;;;;5.72;2.38;;;21.80;99.90;;;;;;4190020;28;20051;-57
2023/07/11 06:24:04;;;;;;;4.75;4.00;;;21.90;99.90;;;;;;4199225;28;20402;-57
2023/07/11 06:26:24;;;;;;;3.88;3.67;;;22.00;99.90;;;;;;4200661;28;20366;-57
2023/07/11 06:28:45;;;;;;;2.78;2.67;;;22.10;99.90;;;;;;4194827;28;20378;-57
2023/07/11 06:31:05;;;;;;;4.00;3.30;;;22.10;99.90;;;;;;4191675;28;20040;-57
2023/07/11 06:33:29;;;;;;;5.55;2.65;;;22.20;99.90;;;;;;4188823;28;20103;-57
2023/07/11 06:35:49;;;;;;;4.22;2.35;;;22.30;99.90;;;;;;4186746;28;20052;-57
2023/07/11 06:38:10;;;;;;;7.80;2.90;;;22.40;99.90;;;;;;4187306;28;20040;-57
2023/07/11 06:40:30;;;;;;;2.30;2.10;;;22.40;99.90;;;;;;4203050;28;20094;-57
2023/07/11 06:42:49;;;;;;;3.13;1.92;;;22.60;99.90;;;;;;4188400;28;20051;-57
2023/07/11 06:45:09;;;;;;;5.78;2.40;;;22.60;99.90;;;;;;4189340;28;20182;-57
2023/07/11 06:47:29;;;;;;;5.43;2.63;;;22.80;99.90;;;;;;4187603;28;20047;-57
2023/07/11 06:49:49;;;;;;;2.78;2.28;;;23.20;99.90;;;;;;4188741;28;20083;-57
2023/07/11 06:52:10;;;;;;;2.13;1.90;;;23.30;99.90;;;;;;4187776;28;20093;-57
2023/07/11 06:54:30;;;;;;;6.38;1.80;;;23.60;99.90;;;;;;4187461;28;20135;-57
2023/07/11 06:56:50;;;;;;;3.78;1.60;;;23.80;99.90;;;;;;4187247;28;20387;-57
2023/07/11 06:59:11;;;;;;;5.40;1.48;;;24.00;99.90;;;;;;4190346;28;20067;-57
2023/07/11 07:01:31;;;;;;;4.95;1.70;;;24.40;99.90;;;;;;4191414;28;20051;-57
2023/07/11 07:03:57;;;;;;;3.13;1.85;;;24.30;99.90;;;;;;4190394;28;20094;-58
2023/07/11 07:06:19;;;;;;;3.63;1.52;;;24.80;99.90;;;;;;4192542;28;20076;-57
2023/07/11 07:08:40;;;;;;;4.97;2.28;;;25.10;99.90;;;;;;4188785;28;20274;-58
2023/07/11 07:11:00;;;;;;;4.50;2.15;;;25.10;99.90;;;;;;4192188;28;20047;-57
2023/07/11 07:13:22;;;;;;;5.28;2.10;;;25.00;99.90;;;;;;4193128;28;20393;-57
2023/07/11 07:15:45;;;;;;;3.03;1.70;;;25.00;99.90;;;;;;4193433;28;20127;-58
2023/07/11 07:18:05;;;;;;;2.50;1.50;;;25.00;99.90;;;;;;4194821;28;20306;-57
2023/07/11 07:20:26;;;;;;;2.10;1.90;;;25.10;99.90;;;;;;4189150;28;20056;-57
2023/07/11 07:22:46;;;;;;;6.18;1.63;;;25.20;99.90;;;;;;4189908;28;20090;-57
2023/07/11 07:25:06;;;;;;;1.80;1.60;;;25.30;99.90;;;;;;4187559;28;20078;-57
2023/07/11 07:27:44;;;;;;;5.25;2.25;;;25.70;99.90;;;;;;4196841;28;20047;-57
2023/07/11 07:30:04;;;;;;;10.85;1.92;;;25.80;99.90;;;;;;4196911;28;20082;-57
2023/07/11 07:32:24;;;;;;;5.25;1.10;;;25.90;99.90;;;;;;4194957;28;20282;-57
2023/07/11 07:34:44;;;;;;;2.55;1.40;;;26.10;99.90;;;;;;4187262;28;20059;-58
2023/07/11 07:37:05;;;;;;;5.03;1.30;;;26.50;99.90;;;;;;4190208;28;20091;-58
2023/07/11 07:39:25;;;;;;;6.80;1.70;;;26.50;99.90;;;;;;4188070;28;20101;-58
2023/07/11 07:41:45;;;;;;;8.25;1.40;;;26.70;99.90;;;;;;4192222;28;20079;-58
2023/07/11 07:44:05;;;;;;;1.92;1.42;;;26.60;99.90;;;;;;4200934;28;20082;-57
2023/07/11 07:46:25;;;;;;;3.13;1.38;;;26.90;99.90;;;;;;4192226;28;20096;-57
2023/07/11 07:48:45;;;;;;;2.95;1.92;;;27.00;99.90;;;;;;4191552;28;20086;-58
2023/07/11 07:51:09;;;;;;;6.68;2.00;;;26.90;99.90;;;;;;4191597;28;20231;-57
2023/07/11 07:53:30;;;;;;;3.05;1.05;;;27.10;99.90;;;;;;4191491;28;20359;-58
2023/07/11 07:55:50;;;;;;;6.68;1.90;;;27.40;99.90;;;;;;4191458;28;20086;-57
2023/07/11 07:58:10;;;;;;;4.72;1.33;;;27.60;99.90;;;;;;4202546;28;20055;-58
2023/07/11 08:00:31;;;;;;;4.30;1.20;;;27.50;99.90;;;;;;4190009;28;20090;-58
2023/07/11 08:02:51;;;;;;;6.03;1.73;;;27.50;99.90;;;;;;4189464;28;20117;-58
2023/07/11 08:05:12;;;;;;;5.88;2.28;;;27.90;99.90;;;;;;4191867;28;20051;-58
2023/07/11 08:07:32;;;;;;;6.63;1.50;;;28.10;99.90;;;;;;4191555;28;20370;-58
2023/07/11 08:09:55;;;;;;;4.90;1.20;;;28.20;99.90;;;;;;4190984;28;20048;-58
2023/07/11 08:12:15;;;;;;;;;;;28.40;99.90;;;;;;4190100;28;20128;-58
2023/07/11 08:14:40;;;;;;;8.73;1.90;;;28.70;99.90;;;;;;4193908;28;19923;-58
2023/07/11 08:17:00;;;;;;;1.35;1.25;;;28.70;99.90;;;;;;4194034;28;20047;-58
2023/07/11 08:19:20;;;;;;;5.05;1.00;;;28.70;99.90;;;;;;4193878;28;20051;-58
2023/07/11 08:21:40;;;;;;;5.65;1.17;;;28.80;99.90;;;;;;4193455;28;20044;-58
2023/07/11 08:24:00;;;;;;;5.60;1.25;;;29.00;99.90;;;;;;4195649;28;20071;-58
2023/07/11 08:26:22;;;;;;;4.00;1.10;;;29.20;99.90;;;;;;4190244;28;20040;-58
2023/07/11 08:28:42;;;;;;;7.35;1.13;;;29.70;99.90;;;;;;4192255;28;20102;-58
2023/07/11 08:31:05;;;;;;;4.78;1.27;;;29.30;99.90;;;;;;4197267;28;20055;-58
2023/07/11 08:33:26;;;;;;;3.50;1.67;;;29.60;99.90;;;;;;4196397;28;20056;-58
2023/07/11 08:35:46;;;;;;;4.65;1.50;;;29.40;99.90;;;;;;4196540;28;20099;-58
2023/07/11 08:38:11;;;;;;;5.72;1.83;;;29.20;99.90;;;;;;4194529;28;20055;-58
2023/07/11 08:40:38;;;;;;;3.33;1.20;;;30.10;99.90;;;;;;4192234;28;20060;-58
2023/07/11 08:43:13;;;;;;;2.70;1.50;;;30.40;99.90;;;;;;4190751;28;20456;-59
2023/07/11 08:45:48;;;;;;;4.53;1.20;;;30.70;99.90;;;;;;4196727;28;20043;-59
2023/07/11 08:48:36;;;;;;;3.08;1.20;;;30.40;99.80;;;;;;4200797;28;20094;-58
2023/07/11 08:51:21;;;;;;;3.70;1.30;;;30.00;99.90;;;;;;4190923;28;20250;-58
2023/07/11 08:53:48;;;;;;;3.08;1.30;;;29.70;99.90;;;;;;4190484;28;20059;-58
2023/07/11 08:56:38;;;;;;;3.38;1.23;;;29.80;99.90;;;;;;4190266;28;20300;-58
2023/07/11 08:59:14;;;;;;;5.38;1.10;;;30.40;99.90;;;;;;4188892;28;20063;-59
2023/07/11 09:01:55;;;;;;;8.23;1.70;;;30.70;99.90;;;;;;4202715;28;20058;-58
2023/07/11 09:04:20;;;;;;;8.70;1.33;;;30.60;99.60;;;;;;4193622;28;20058;-58
2023/07/11 09:06:54;;;;;;;3.22;1.10;;;30.90;98.70;;;;;;4187881;28;20048;-58
2023/07/11 09:09:14;;;;;;;1.83;0.90;;;31.20;98.50;;;;;;4189255;28;20040;-58
2023/07/11 09:11:51;;;;;;;2.85;1.05;;;31.60;98.40;;;;;;4191961;28;20040;-59
2023/07/11 09:14:20;;;;;;;3.47;1.20;;;31.80;98.90;;;;;;4187828;28;20047;-59
2023/07/11 09:16:50;;;;;;;4.07;0.90;;;31.60;96.30;;;;;;4187979;28;20051;-58
2023/07/11 09:19:54;;;;;;;1.15;0.98;;;30.90;97.00;;;;;;4191124;28;20044;-59
2023/07/11 09:22:21;;;;;;;2.55;0.90;;;31.00;97.00;;;;;;4191588;28;20075;-58
2023/07/11 09:25:06;;;;;;;3.15;1.50;;;31.40;97.10;;;;;;4190786;28;20060;-59
2023/07/11 09:27:35;;;;;;;1.23;1.00;;;31.70;97.70;;;;;;4192335;28;20040;-59
2023/07/11 09:29:56;;;;;;;1.63;0.95;;;31.50;97.20;;;;;;4188681;28;20055;-59
2023/07/11 09:32:17;;;;;;;3.28;0.80;;;31.90;96.70;;;;;;4192641;28;20267;-58
2023/07/11 09:34:42;;;;;;;6.55;0.93;;;32.00;95.10;;;;;;4194117;28;20227;-58
2023/07/11 09:37:27;;;;;;;3.08;0.90;;;32.00;95.60;;;;;;4194724;28;20394;-59
2023/07/11 09:39:59;;;;;;;2.53;0.80;;;31.90;94.80;;;;;;4194409;28;20095;-58
2023/07/11 09:42:25;;;;;;;;;;;32.30;94.60;;;;;;4192888;28;20040;-59
2023/07/11 09:44:59;;;;;;;1.23;0.70;;;32.30;93.90;;;;;;4188830;28;20123;-58
2023/07/11 09:47:19;;;;;;;3.38;0.80;;;32.30;93.90;;;;;;4189149;28;20056;-58
2023/07/11 09:49:39;;;;;;;0.85;0.70;;;32.20;93.10;;;;;;4197756;28;20087;-58
2023/07/11 09:52:01;;;;;;;6.15;1.15;;;32.40;94.20;;;;;;4195588;28;20102;-58
2023/07/11 09:54:27;;;;;;;5.15;0.77;;;32.70;94.10;;;;;;4198324;28;20075;-59
2023/07/11 09:56:49;;;;;;;2.78;0.80;;;32.90;94.00;;;;;;4191486;28;20052;-59
2023/07/11 09:59:11;;;;;;;2.00;0.80;;;33.00;92.90;;;;;;4189910;28;20048;-59
2023/07/11 10:01:36;;;;;;;1.98;1.13;;;32.80;93.50;;;;;;4189396;28;20048;-59
2023/07/11 10:03:58;;;;;;;1.35;0.80;;;32.30;93.00;;;;;;4193783;28;20055;-58
2023/07/11 10:06:32;;;;;;;3.55;0.80;;;32.40;94.10;;;;;;4201399;28;20113;-59
2023/07/11 10:08:55;;;;;;;4.53;1.08;;;32.90;93.60;;;;;;4192479;28;20436;-59
2023/07/11 10:11:15;;;;;;;4.03;0.90;;;32.80;93.30;;;;;;4189144;28;20044;-58
2023/07/11 10:13:35;;;;;;;4.35;0.80;;;32.90;93.00;;;;;;4188249;28;20083;-58
2023/07/11 10:16:05;;;;;;;6.10;1.20;;;33.20;93.60;;;;;;4188894;28;20068;-58
2023/07/11 10:18:31;;;;;;;1.80;0.80;;;33.00;91.90;;;;;;4189567;28;20052;-59
2023/07/11 10:20:56;;;;;;;4.30;1.00;;;33.50;92.90;;;;;;4200079;28;20330;-59
2023/07/11 10:23:24;;;;;;;5.35;1.25;;;33.50;91.90;;;;;;4189138;28;20055;-59
2023/07/11 10:25:44;;;;;;;3.47;0.95;;;33.60;92.80;;;;;;4188686;28;20071;-59
2023/07/11 10:28:48;;;;;;;3.03;0.80;;;33.30;92.20;;;;;;4189451;28;20081;-59
2023/07/11 10:31:16;;;;;;;8.70;1.42;;;33.30;91.70;;;;;;4121905;28;20458;-59
2023/07/11 10:33:46;;;;;;;3.15;0.80;;;33.80;91.60;;;;;;4122262;28;20137;-58
2023/07/11 10:36:30;;;;;;;5.43;1.27;;;33.70;92.20;;;;;;4124259;28;20062;-59
2023/07/11 10:39:31;;;;;;;3.55;1.38;;;34.00;91.50;;;;;;4124675;28;20077;-59
2023/07/11 10:42:02;;;;;;;3.30;0.80;;;33.50;90.80;;;;;;4123421;28;20049;-58
2023/07/11 10:44:40;;;;;;;4.57;0.90;;;33.90;91.70;;;;;;4124375;28;20064;-59
2023/07/11 10:47:04;;;;;;;8.05;0.90;;;34.20;91.50;;;;;;4125322;28;20108;-59
2023/07/11 10:49:31;;;;;;;2.08;0.80;;;33.80;92.60;;;;;;4122520;28;20054;-59
2023/07/11 10:52:16;;;;;;;4.57;0.80;;;33.60;91.10;;;;;;4125472;28;20106;-59
2023/07/11 10:54:39;;;;;;;8.27;0.98;;;33.90;92.50;;;;;;4128053;28;20384;-59
2023/07/11 10:57:03;;;;;;;1.58;0.70;;;34.20;90.80;;;;;;4127760;28;20042;-59
2023/07/11 10:59:29;;;;;;;4.43;0.70;;;33.80;90.10;;;;;;4126322;28;20058;-59
2023/07/11 11:01:53;;;;;;;3.72;0.80;;;34.10;91.90;;;;;;4121316;28;20285;-59
2023/07/11 11:04:28;;;;;;;3.50;1.30;;;34.30;91.60;;;;;;4125352;28;20057;-59
2023/07/11 11:06:59;;;;;;;7.60;0.90;;;34.50;90.80;;;;;;4160859;28;20076;-59
2023/07/11 11:09:36;;;;;;;4.18;0.85;;;34.20;90.10;;;;;;4188815;28;20044;-59
2023/07/11 11:12:25;;;;;;;4.30;0.73;;;34.20;90.40;;;;;;4189071;28;20122;-59
2023/07/11 11:15:00;;;;;;;9.43;1.23;;;34.70;90.10;;;;;;4196407;28;20402;-59
2023/07/11 11:17:34;;;;;;;15.90;0.73;;;34.80;89.90;;;;;;4194567;28;20063;-59
2023/07/11 11:20:15;;;;;;;2.15;0.70;;;34.40;86.80;;;;;;4191527;28;20044;-59
2023/07/11 11:22:57;;;;;;;6.90;1.60;;;34.70;87.60;;;;;;4191620;28;20243;-59
2023/07/11 11:25:42;;;;;;;3.70;0.73;;;34.70;91.10;;;;;;4193203;28;20071;-60
2023/07/11 11:28:17;;;;;;;2.65;0.80;;;35.00;87.20;;;;;;4188070;28;20336;-59
2023/07/11 11:30:52;;;;;;;3.75;0.70;;;34.40;87.40;;;;;;4192028;28;20417;-59
2023/07/11 11:33:18;;;;;;;5.13;1.02;;;34.80;88.20;;;;;;4192917;28;20064;-60
2023/07/11 11:35:58;;;;;;;10.45;1.10;;;34.40;89.10;;;;;;4190769;28;20108;-59
2023/07/11 11:38:31;;;;;;;5.90;0.75;;;34.80;88.70;;;;;;4190180;28;20040;-58
2023/07/11 11:40:58;;;;;;;2.03;0.70;;;34.70;89.30;;;;;;4188953;28;20052;-57
2023/07/11 11:43:25;;;;;;;7.05;1.23;;;34.80;89.80;;;;;;4188902;28;20263;-57
2023/07/11 11:45:48;;;;;;;5.47;0.90;;;34.90;87.80;;;;;;4189384;28;20075;-57
2023/07/11 11:48:19;;;;;;;8.25;1.13;;;34.60;88.20;;;;;;4190102;28;20079;-58
2023/07/11 11:50:43;;;;;;;5.50;1.60;;;34.50;87.00;;;;;;4189873;28;20044;-58
2023/07/11 11:53:18;;;;;;;8.35;0.80;;;34.20;87.10;;;;;;4189587;28;20076;-57
2023/07/11 11:55:39;;;;;;;9.43;0.75;;;34.10;88.00;;;;;;4190716;28;20241;-57
2023/07/11 11:57:59;;;;;;;7.20;1.13;;;34.20;88.90;;;;;;4192591;28;20068;-58
2023/07/11 12:00:45;;;;;;;6.22;1.00;;;33.90;87.80;;;;;;4189059;28;20040;-58
2023/07/11 12:03:27;;;;;;;7.25;0.90;;;34.40;89.80;;;;;;4188533;28;20079;-57
2023/07/11 12:05:52;;;;;;;5.50;0.85;;;34.40;87.10;;;;;;4192009;28;20300;-57
2023/07/11 12:08:35;;;;;;;5.95;0.98;;;34.70;89.10;;;;;;4174968;28;20313;-56
2023/07/11 12:11:07;;;;;;;6.25;0.80;;;34.20;86.70;;;;;;4190518;28;20394;-57
2023/07/11 12:13:30;;;;;;;3.85;0.80;;;34.50;88.60;;;;;;4188538;28;20237;-57
2023/07/11 12:15:52;;;;;;;4.88;1.10;;;34.20;85.90;;;;;;4188252;28;20051;-57
2023/07/11 12:18:38;;;;;;;7.28;1.20;;;34.40;90.20;;;;;;4194029;28;20056;-57
2023/07/11 12:21:14;;;;;;;5.60;0.90;;;34.60;87.40;;;;;;4193684;28;20044;-57
2023/07/11 12:23:33;;;;;;;7.40;1.13;;;34.90;87.90;;;;;;4189270;28;20056;-57
2023/07/11 12:26:24;;;;;;;6.93;1.40;;;34.60;88.30;;;;;;4193212;28;20073;-57
2023/07/11 12:28:47;;;;;;;7.07;0.90;;;34.90;91.00;;;;;;4192913;28;20060;-57
2023/07/11 12:31:23;;;;;;;8.95;0.75;;;35.70;88.40;;;;;;4189403;28;20044;-58